Time;durP1;ratioP1;P1;durP2;ratioP2;P2;SDS_P1;SDS_P2;PMS_P1;PMS_P2;Temp;Humidity;BMP_temperature;BMP_pressure;BME280_temperature;BME280_humidity;BME280_pressure;Samples;Min_cycle;Max_cycle;Signal;HPM_P1;HPM_P2
2021/07/22 00:02:07;;;;;;;9.90;8.65;;;;;;;25.93;33.01;99514.94;5051215;28;20029;-76
2021/07/22 00:04:32;;;;;;;9.82;8.82;;;;;;;25.83;33.39;99492.53;5051063;28;20021;-75
2021/07/22 00:06:58;;;;;;;8.48;7.65;;;;;;;26.01;33.36;99520.84;5050893;28;20528;-76
2021/07/22 00:09:23;;;;;;;10.45;8.95;;;;;;;25.89;32.99;99508.47;5051066;28;20023;-75
2021/07/22 00:11:49;;;;;;;9.13;8.23;;;;;;;26.00;33.32;99511.09;5051231;28;20029;-75
2021/07/22 00:14:15;;;;;;;9.48;8.48;;;;;;;26.00;33.33;99506.50;5051308;28;20017;-75
2021/07/22 00:16:40;;;;;;;9.52;8.35;;;;;;;25.96;33.14;99513.56;5049936;28;20104;-76
2021/07/22 00:19:06;;;;;;;13.30;9.23;;;;;;;25.67;33.56;99462.06;5051205;28;20128;-76
2021/07/22 00:21:31;;;;;;;10.63;9.02;;;;;;;25.90;33.69;99518.19;5051224;28;20416;-75
2021/07/22 00:23:59;;;;;;;10.52;8.25;;;;;;;25.62;33.69;99483.69;5051159;28;20531;-76
2021/07/22 00:26:24;;;;;;;10.30;8.75;;;;;;;25.80;33.43;99512.84;5049744;28;20043;-76
2021/07/22 00:28:50;;;;;;;10.25;8.88;;;;;;;25.70;33.79;99502.09;5049845;28;20033;-74
2021/07/22 00:31:15;;;;;;;9.63;8.63;;;;;;;25.71;33.73;99502.88;5050872;28;20025;-75
2021/07/22 00:33:41;;;;;;;9.98;8.90;;;;;;;25.74;33.78;99516.66;5050949;28;20024;-76
2021/07/22 00:36:09;;;;;;;10.43;9.02;;;;;;;25.87;33.76;99524.16;5050982;28;20064;-76
2021/07/22 00:38:35;;;;;;;10.65;8.80;;;;;;;25.82;33.76;99517.97;5053042;28;20036;-76
2021/07/22 00:41:01;;;;;;;10.20;9.20;;;;;;;25.61;33.92;99485.59;5054925;28;20029;-76
2021/07/22 00:43:26;;;;;;;9.90;8.82;;;;;;;25.86;34.08;99522.56;5054884;28;20025;-76
2021/07/22 00:45:52;;;;;;;10.25;9.15;;;;;;;25.81;33.89;99533.41;5054829;28;20032;-75
2021/07/22 00:48:17;;;;;;;10.82;9.38;;;;;;;25.83;34.00;99535.81;5054856;28;20029;-77
2021/07/22 00:50:42;;;;;;;13.43;9.23;;;;;;;25.79;34.03;99532.88;5054437;28;20044;-76
2021/07/22 00:53:08;;;;;;;13.95;9.77;;;;;;;25.48;34.17;99521.34;5053060;28;20041;-75
2021/07/22 00:55:33;;;;;;;10.45;9.40;;;;;;;25.43;34.41;99528.66;5054549;28;20032;-75
2021/07/22 00:57:59;;;;;;;11.02;9.88;;;;;;;24.90;34.57;99444.47;5054448;28;20387;-75
2021/07/22 01:00:25;;;;;;;10.18;9.10;;;;;;;25.24;34.55;99496.81;5054408;28;20115;-75
2021/07/22 01:02:50;;;;;;;10.73;9.55;;;;;;;25.50;34.41;99534.59;5054450;28;20104;-74
2021/07/22 01:05:16;;;;;;;10.25;9.15;;;;;;;25.20;34.66;99484.13;5054307;28;20029;-76
2021/07/22 01:07:41;;;;;;;10.00;8.95;;;;;;;25.42;34.82;99521.66;5054231;28;20032;-75
2021/07/22 01:10:08;;;;;;;10.02;8.50;;;;;;;25.31;34.68;99513.56;5054237;28;20572;-75
2021/07/22 01:12:34;;;;;;;10.52;9.30;;;;;;;25.41;34.82;99520.84;5054107;28;20025;-75
2021/07/22 01:14:59;;;;;;;11.13;9.60;;;;;;;25.10;34.85;99471.44;5054179;28;20118;-75
2021/07/22 01:17:50;;;;;;;12.52;9.55;;;;;;;25.36;35.16;99520.03;5054352;28;20068;-75
2021/07/22 01:20:22;;;;;;;13.65;9.80;;;;;;;25.15;35.54;99522.78;5054242;28;20052;-76
2021/07/22 01:22:50;;;;;;;10.85;9.75;;;;;;;25.19;35.34;99531.94;5054187;28;20104;-77
2021/07/22 01:25:16;;;;;;;11.55;9.65;;;;;;;25.28;35.12;99524.94;5053822;28;20387;-76
2021/07/22 01:27:42;;;;;;;11.20;9.68;;;;;;;24.99;35.38;99484.19;5054029;28;20032;-76
2021/07/22 01:30:11;;;;;;;10.90;9.18;;;;;;;25.26;35.48;99521.66;5053976;28;20025;-76
2021/07/22 01:32:36;;;;;;;12.60;10.30;;;;;;;24.61;35.33;99418.06;5053839;28;20091;-75
2021/07/22 01:35:03;;;;;;;10.70;9.48;;;;;;;24.99;35.47;99500.38;5053933;28;20119;-74
2021/07/22 01:37:28;;;;;;;10.63;9.52;;;;;;;25.08;35.65;99530.34;5053794;28;20032;-75
2021/07/22 01:39:54;;;;;;;11.18;9.00;;;;;;;25.08;35.53;99524.13;5053880;28;20060;-76
2021/07/22 01:42:19;;;;;;;11.10;9.57;;;;;;;24.99;35.77;99508.50;5053535;28;20059;-74
2021/07/22 01:44:44;;;;;;;11.60;9.13;;;;;;;25.08;35.46;99530.34;5052231;28;20502;-76
2021/07/22 01:47:10;;;;;;;10.80;9.70;;;;;;;25.13;35.49;99537.63;5052151;28;20033;-75
2021/07/22 01:49:35;;;;;;;13.30;9.57;;;;;;;24.50;35.90;99445.31;5052478;28;20032;-75
2021/07/22 01:52:02;;;;;;;11.85;10.40;;;;;;;25.08;35.96;99537.66;5053713;28;20112;-74
2021/07/22 01:54:28;;;;;;;11.68;9.77;;;;;;;24.94;36.00;99532.78;5053361;28;20068;-75
2021/07/22 01:56:57;;;;;;;10.90;9.48;;;;;;;24.99;36.11;99549.00;5053172;28;20506;-74
2021/07/22 01:59:23;;;;;;;11.43;9.80;;;;;;;24.77;36.17;99523.34;5053271;28;20021;-75
2021/07/22 02:01:48;;;;;;;11.93;9.80;;;;;;;24.67;36.45;99540.38;5053357;28;20078;-75
2021/07/22 02:04:13;;;;;;;12.18;10.07;;;;;;;24.56;36.81;99534.16;5051989;28;20037;-75
2021/07/22 02:06:40;;;;;;;12.27;10.35;;;;;;;23.96;36.84;99427.78;5053141;28;20035;-74
2021/07/22 02:09:05;;;;;;;11.10;9.88;;;;;;;24.45;36.62;99510.91;5053104;28;20029;-75
2021/07/22 02:11:30;;;;;;;10.77;9.68;;;;;;;23.95;36.89;99436.94;5053400;28;20028;-75
2021/07/22 02:13:56;;;;;;;12.73;10.57;;;;;;;24.71;36.70;99552.25;5053182;28;20033;-74
2021/07/22 02:16:21;;;;;;;11.70;9.25;;;;;;;24.72;36.88;99559.28;5053033;28;20110;-74
2021/07/22 02:18:48;;;;;;;11.77;10.13;;;;;;;24.57;36.91;99521.47;5053182;28;20028;-76
2021/07/22 02:21:14;;;;;;;11.65;10.00;;;;;;;24.77;37.06;99555.75;5051810;28;20087;-75
2021/07/22 02:23:39;;;;;;;13.13;10.30;;;;;;;24.77;36.95;99566.56;5053090;28;20053;-75
2021/07/22 02:26:08;;;;;;;11.30;9.43;;;;;;;24.70;37.19;99570.34;5052841;28;20032;-75
2021/07/22 02:28:37;;;;;;;11.57;10.02;;;;;;;24.66;36.99;99560.34;5051521;28;20029;-74
2021/07/22 02:31:03;;;;;;;12.60;10.23;;;;;;;24.73;37.37;99570.88;5052833;28;20028;-75
2021/07/22 02:33:28;;;;;;;11.32;9.98;;;;;;;24.44;37.14;99551.66;5052753;28;20543;-77
2021/07/22 02:35:57;;;;;;;12.50;9.95;;;;;;;23.89;37.49;99432.63;5052977;28;20021;-76
2021/07/22 02:38:22;;;;;;;13.57;10.70;;;;;;;24.77;37.34;99571.97;5052715;28;20029;-75
2021/07/22 02:40:48;;;;;;;12.02;10.32;;;;;;;23.74;37.38;99414.50;5052572;28;20028;-76
2021/07/22 02:43:13;;;;;;;10.30;9.10;;;;;;;24.59;37.18;99547.13;5052342;28;20033;-76
2021/07/22 02:45:38;;;;;;;11.35;10.25;;;;;;;24.44;37.47;99528.19;5052547;28;20390;-77
2021/07/22 02:48:08;;;;;;;12.57;10.68;;;;;;;24.56;37.74;99580.06;5052464;28;20456;-76
2021/07/22 02:50:34;;;;;;;12.57;10.43;;;;;;;24.14;38.17;99544.31;5052611;28;20025;-75
2021/07/22 02:53:05;;;;;;;10.70;9.60;;;;;;;24.34;38.25;99574.06;5052464;28;20500;-75
2021/07/22 02:55:31;;;;;;;12.05;10.18;;;;;;;24.33;38.20;99572.44;5052466;28;20043;-75
2021/07/22 02:58:03;;;;;;;14.02;10.70;;;;;;;24.11;38.59;99537.56;5052034;28;20482;-75
2021/07/22 03:00:28;;;;;;;12.32;10.15;;;;;;;24.44;38.37;99574.06;5052032;28;20059;-75
2021/07/22 03:02:53;;;;;;;12.70;9.70;;;;;;;23.56;38.08;99438.44;5052329;28;20029;-75
2021/07/22 03:05:19;;;;;;;12.15;10.85;;;;;;;23.97;38.11;99507.59;5052088;28;20039;-73
2021/07/22 03:07:44;;;;;;;12.23;10.93;;;;;;;24.25;38.36;99564.84;5052120;28;20029;-73
2021/07/22 03:10:11;;;;;;;11.15;10.02;;;;;;;24.36;38.42;99585.41;5052306;28;20028;-76
2021/07/22 03:12:36;;;;;;;15.00;10.77;;;;;;;24.27;38.43;99557.31;5051738;28;20405;-76
2021/07/22 03:15:02;;;;;;;10.93;9.82;;;;;;;24.48;38.16;99585.16;5051670;28;20025;-76
2021/07/22 03:17:27;;;;;;;11.25;10.15;;;;;;;24.28;38.31;99558.94;5051770;28;20082;-75
2021/07/22 03:19:53;;;;;;;13.63;10.68;;;;;;;24.35;38.32;99581.06;5051912;28;20025;-76
2021/07/22 03:22:18;;;;;;;12.13;10.50;;;;;;;24.37;38.50;99592.41;5051805;28;20116;-75
2021/07/22 03:24:44;;;;;;;12.57;9.98;;;;;;;24.21;38.67;99586.16;5051921;28;20079;-76
2021/07/22 03:27:09;;;;;;;13.32;9.77;;;;;;;24.20;38.88;99581.00;5051748;28;20021;-75
2021/07/22 03:29:34;;;;;;;11.63;9.40;;;;;;;24.32;38.58;99595.91;5051795;28;20486;-76
2021/07/22 03:32:00;;;;;;;14.00;10.48;;;;;;;24.35;38.86;99600.78;5051685;28;20555;-75
2021/07/22 03:34:25;;;;;;;14.13;10.13;;;;;;;24.33;38.67;99592.13;5051622;28;20025;-76
2021/07/22 03:36:51;;;;;;;15.30;9.88;;;;;;;24.29;38.89;99599.16;5051557;28;20024;-75
2021/07/22 03:39:16;;;;;;;13.25;11.38;;;;;;;24.12;39.28;99581.53;5051412;28;20025;-75
2021/07/22 03:41:47;;;;;;;14.15;9.88;;;;;;;23.95;39.04;99544.00;5051509;28;20036;-76
2021/07/22 03:44:17;;;;;;;11.80;9.38;;;;;;;24.37;38.88;99595.13;5051573;28;20482;-75
2021/07/22 03:46:43;;;;;;;13.57;9.73;;;;;;;24.34;39.08;99601.03;5051332;28;20033;-75
2021/07/22 03:49:09;;;;;;;12.30;10.45;;;;;;;24.32;39.23;99614.81;5051207;28;20040;-76
2021/07/22 03:51:34;;;;;;;11.85;10.30;;;;;;;24.18;39.31;99593.97;5051113;28;20046;-75
2021/07/22 03:54:00;;;;;;;11.13;10.02;;;;;;;24.25;39.22;99608.81;5049894;28;20017;-76
2021/07/22 03:56:26;;;;;;;12.70;10.77;;;;;;;24.14;39.26;99596.38;5051085;28;20021;-75
2021/07/22 03:58:54;;;;;;;12.23;10.52;;;;;;;24.21;39.54;99609.63;5051423;28;20029;-76
2021/07/22 04:01:20;;;;;;;12.10;9.43;;;;;;;24.31;39.27;99613.19;5051304;28;20057;-75
2021/07/22 04:03:45;;;;;;;14.45;9.90;;;;;;;23.52;39.33;99481.25;5051317;28;20112;-75
2021/07/22 04:06:11;;;;;;;12.95;9.95;;;;;;;24.42;39.45;99607.81;5051145;28;20032;-76
2021/07/22 04:08:37;;;;;;;12.25;9.82;;;;;;;24.40;39.24;99599.97;5051167;28;20025;-75
2021/07/22 04:11:02;;;;;;;13.80;10.18;;;;;;;24.44;39.33;99614.56;5051185;28;20025;-77
2021/07/22 04:13:28;;;;;;;11.90;9.77;;;;;;;24.47;39.32;99622.13;5055646;28;20025;-75
2021/07/22 04:15:53;;;;;;;12.05;10.20;;;;;;;24.40;39.24;99608.06;5056413;28;20047;-75
2021/07/22 04:18:19;;;;;;;11.02;9.80;;;;;;;24.43;39.46;99629.13;5057485;28;20028;-74
2021/07/22 04:20:44;;;;;;;12.85;9.80;;;;;;;24.44;39.56;99617.25;5057815;28;20063;-76
2021/07/22 04:23:09;;;;;;;13.57;9.93;;;;;;;24.51;39.55;99615.09;5057921;28;20033;-74
2021/07/22 04:25:35;;;;;;;13.00;10.68;;;;;;;24.36;39.53;99597.00;5057483;28;20082;-75
2021/07/22 04:28:00;;;;;;;21.27;10.65;;;;;;;24.58;39.59;99620.28;5057647;28;20032;-76
2021/07/22 04:30:26;;;;;;;15.70;10.82;;;;;;;24.62;39.56;99622.19;5057670;28;20025;-74
2021/07/22 04:32:56;;;;;;;14.55;10.43;;;;;;;23.72;39.47;99477.84;5056367;28;20042;-75
2021/07/22 04:35:21;;;;;;;12.33;10.10;;;;;;;24.57;39.53;99634.84;5057534;28;20402;-74
2021/07/22 04:37:47;;;;;;;11.93;10.02;;;;;;;24.52;39.83;99635.63;5057533;28;20275;-74
2021/07/22 04:40:12;;;;;;;13.88;9.77;;;;;;;24.51;39.73;99628.59;5057488;28;20024;-74
2021/07/22 04:42:38;;;;;;;12.60;9.85;;;;;;;24.52;39.82;99607.81;5056270;28;20033;-74
2021/07/22 04:45:04;;;;;;;15.30;11.50;;;;;;;24.60;39.85;99610.84;5057739;28;20025;-75
2021/07/22 04:47:29;;;;;;;14.77;10.73;;;;;;;24.50;39.93;99616.19;5057609;28;20387;-76
2021/07/22 04:49:54;;;;;;;13.98;10.23;;;;;;;24.74;39.69;99642.72;5057575;28;20482;-74
2021/07/22 04:52:20;;;;;;;11.18;9.55;;;;;;;24.74;39.57;99640.00;5057285;28;20099;-74
2021/07/22 04:54:45;;;;;;;16.25;10.20;;;;;;;24.78;39.79;99641.09;5057164;28;20021;-74
2021/07/22 04:57:11;;;;;;;15.05;11.10;;;;;;;24.76;39.73;99640.56;5057389;28;20185;-75
2021/07/22 04:59:36;;;;;;;13.63;10.73;;;;;;;24.55;39.83;99607.31;5057521;28;20025;-75
2021/07/22 05:02:01;;;;;;;12.75;10.23;;;;;;;24.76;39.99;99632.44;5057492;28;20037;-77
2021/07/22 05:04:27;;;;;;;15.07;10.95;;;;;;;24.62;39.62;99608.69;5057376;28;20059;-73
2021/07/22 05:06:52;;;;;;;14.20;10.93;;;;;;;24.73;39.83;99612.19;5057451;28;20025;-74
2021/07/22 05:09:18;;;;;;;12.80;9.95;;;;;;;24.95;39.88;99655.16;5048789;28;20114;-76
2021/07/22 05:11:43;;;;;;;12.57;10.48;;;;;;;24.92;39.72;99653.78;5041741;28;20029;-73
2021/07/22 05:14:09;;;;;;;13.13;10.48;;;;;;;24.92;39.94;99653.78;5037058;28;20029;-77
2021/07/22 05:16:34;;;;;;;12.55;10.80;;;;;;;24.89;39.95;99659.72;5037150;28;20517;-74
2021/07/22 05:19:00;;;;;;;14.05;11.27;;;;;;;24.52;39.79;99597.03;5042365;28;20517;-75
2021/07/22 05:21:25;;;;;;;14.18;10.80;;;;;;;24.92;39.54;99648.38;5068058;28;20032;-76
2021/07/22 05:23:51;;;;;;;12.57;10.38;;;;;;;25.07;39.41;99663.81;5055909;28;20028;-76
2021/07/22 05:26:16;;;;;;;12.30;10.00;;;;;;;24.52;39.60;99587.03;5052472;28;20112;-75
2021/07/22 05:28:42;;;;;;;13.38;10.57;;;;;;;25.02;39.92;99672.75;5053743;28;20028;-74
2021/07/22 05:31:10;;;;;;;13.50;10.38;;;;;;;24.99;40.03;99659.78;5033908;28;20464;-74
2021/07/22 05:33:36;;;;;;;13.23;10.77;;;;;;;24.38;39.94;99551.66;5032814;28;20101;-75
2021/07/22 05:36:06;;;;;;;12.02;10.60;;;;;;;25.14;39.89;99675.16;5033900;28;20048;-75
2021/07/22 05:38:34;;;;;;;12.77;10.45;;;;;;;24.44;39.88;99568.69;5043176;28;20032;-76
2021/07/22 05:41:10;;;;;;;11.45;9.65;;;;;;;25.03;39.86;99666.25;5044790;28;20056;-75
2021/07/22 05:43:36;;;;;;;14.50;9.27;;;;;;;25.10;39.64;99671.38;5033105;28;20033;-74
2021/07/22 05:46:01;;;;;;;10.55;9.38;;;;;;;25.00;39.68;99652.47;5043692;28;20094;-75
2021/07/22 05:48:27;;;;;;;10.70;9.10;;;;;;;22.97;39.98;99337.19;5043427;28;20037;-75
2021/07/22 05:50:52;;;;;;;11.20;9.48;;;;;;;25.22;39.60;99673.81;5034983;28;20090;-74
2021/07/22 05:53:18;;;;;;;13.85;9.55;;;;;;;25.24;39.92;99677.88;5045568;28;20036;-73
2021/07/22 05:55:44;;;;;;;15.60;13.02;;;;;;;25.20;39.76;99673.28;5038754;28;20025;-73
2021/07/22 05:58:10;;;;;;;12.90;10.52;;;;;;;25.35;39.58;99689.50;5040218;28;20021;-75
2021/07/22 06:00:36;;;;;;;12.35;11.05;;;;;;;25.18;39.43;99637.59;5039847;28;20080;-74
2021/07/22 06:03:06;;;;;;;10.85;9.32;;;;;;;25.43;39.42;99666.53;5039231;28;20037;-74
2021/07/22 06:05:32;;;;;;;12.25;8.98;;;;;;;25.57;39.49;99689.22;5041072;28;20055;-74
2021/07/22 06:08:00;;;;;;;10.85;9.63;;;;;;;25.36;39.14;99663.28;5036340;28;20430;-73
2021/07/22 06:10:26;;;;;;;11.00;9.32;;;;;;;24.67;39.35;99546.56;5042662;28;20033;-75
2021/07/22 06:12:54;;;;;;;18.25;9.68;;;;;;;25.51;39.20;99684.91;5051817;28;20040;-75
2021/07/22 06:15:19;;;;;;;10.63;8.55;;;;;;;25.57;39.25;99686.50;5044883;28;20074;-75
2021/07/22 06:17:45;;;;;;;11.38;8.32;;;;;;;25.45;39.23;99669.78;5055469;28;20028;-75
2021/07/22 06:20:10;;;;;;;9.60;8.65;;;;;;;25.03;39.33;99600.59;5059184;28;20027;-74
2021/07/22 06:22:36;;;;;;;10.70;9.48;;;;;;;25.50;39.19;99667.06;5060192;28;20110;-75
2021/07/22 06:25:02;;;;;;;9.73;8.32;;;;;;;25.23;39.25;99619.50;5041271;28;20025;-76
2021/07/22 06:27:28;;;;;;;11.30;9.57;;;;;;;25.68;38.70;99677.31;5041426;28;20025;-76
2021/07/22 06:29:53;;;;;;;12.95;9.73;;;;;;;25.22;39.14;99609.78;5040488;28;20091;-73
2021/07/22 06:32:19;;;;;;;11.55;9.10;;;;;;;25.63;38.76;99658.38;5033161;28;20021;-75
2021/07/22 06:34:44;;;;;;;10.73;9.60;;;;;;;25.79;38.88;99676.22;5047963;28;20098;-75
2021/07/22 06:37:09;;;;;;;15.65;10.93;;;;;;;25.84;39.10;99672.69;5055148;28;20016;-76
2021/07/22 06:39:35;;;;;;;13.57;10.30;;;;;;;25.89;38.86;99653.72;5053627;28;20109;-75
2021/07/22 06:42:01;;;;;;;14.98;11.63;;;;;;;26.08;38.51;99676.41;5035758;28;20037;-76
2021/07/22 06:44:30;;;;;;;13.85;11.25;;;;;;;26.17;38.38;99674.75;5032392;28;20052;-74
2021/07/22 06:46:56;;;;;;;14.98;12.38;;;;;;;26.24;38.23;99693.41;5048278;28;20028;-73
2021/07/22 06:49:22;;;;;;;12.82;11.05;;;;;;;26.31;38.38;99666.03;5059900;28;20485;-75
2021/07/22 06:51:51;;;;;;;16.15;12.55;;;;;;;26.28;38.43;99672.81;5051727;28;20033;-74
2021/07/22 06:54:17;;;;;;;12.88;9.77;;;;;;;26.33;38.21;99667.41;5068728;28;20162;-76
2021/07/22 06:56:42;;;;;;;15.00;13.43;;;;;;;26.40;37.99;99665.19;5037664;28;20112;-74
2021/07/22 06:59:08;;;;;;;13.60;9.40;;;;;;;25.51;37.85;99526.19;5031570;28;20056;-77
2021/07/22 07:01:33;;;;;;;13.32;9.55;;;;;;;26.50;37.58;99670.56;5045131;28;20176;-74
2021/07/22 07:03:59;;;;;;;30.67;10.95;;;;;;;26.50;37.57;99667.84;5050885;28;20029;-76
2021/07/22 07:06:24;;;;;;;28.30;10.32;;;;;;;26.53;37.77;99675.41;5039755;28;20025;-76
2021/07/22 07:08:49;;;;;;;13.43;7.90;;;;;;;26.54;37.49;99673.50;5047941;28;20025;-75
2021/07/22 07:11:15;;;;;;;11.02;7.20;;;;;;;26.50;37.07;99654.31;5032807;28;20048;-77
2021/07/22 07:13:40;;;;;;;12.98;6.82;;;;;;;26.56;37.20;99660.50;5033666;28;20154;-77
2021/07/22 07:16:07;;;;;;;12.45;6.95;;;;;;;26.71;36.78;99670.44;5046899;28;20107;-76
2021/07/22 07:18:32;;;;;;;10.95;6.93;;;;;;;26.78;36.87;99673.66;5052920;28;20040;-77
2021/07/22 07:21:03;;;;;;;19.33;8.13;;;;;;;26.71;37.11;99651.47;5045505;28;20028;-75
2021/07/22 07:23:28;;;;;;;15.70;7.60;;;;;;;26.83;36.75;99660.91;5033121;28;20087;-74
2021/07/22 07:25:54;;;;;;;15.48;8.38;;;;;;;26.78;36.58;99660.94;5038713;28;20769;-77
2021/07/22 07:28:19;;;;;;;15.13;7.43;;;;;;;26.78;36.71;99660.13;5040165;28;20029;-75
2021/07/22 07:30:44;;;;;;;18.98;7.53;;;;;;;26.87;36.54;99663.84;5047726;28;20025;-77
2021/07/22 07:33:10;;;;;;;9.00;5.50;;;;;;;26.99;36.39;99685.19;5039021;28;20052;-75
2021/07/22 07:35:35;;;;;;;19.98;7.10;;;;;;;26.91;36.56;99687.38;5037737;28;20104;-75
2021/07/22 07:38:01;;;;;;;11.63;5.32;;;;;;;26.98;36.54;99670.03;5041886;28;20025;-77
2021/07/22 07:40:26;;;;;;;9.07;5.90;;;;;;;26.92;36.45;99647.56;5044919;28;20021;-76
2021/07/22 07:42:51;;;;;;;10.13;6.85;;;;;;;27.18;36.56;99673.38;5055613;28;20037;-77
2021/07/22 07:45:17;;;;;;;14.35;6.07;;;;;;;26.93;36.20;99638.31;5040487;28;20466;-73
2021/07/22 07:47:45;;;;;;;8.85;5.90;;;;;;;27.13;36.14;99670.72;5033797;28;20039;-75
2021/07/22 07:50:10;;;;;;;10.77;6.82;;;;;;;27.15;36.15;99657.69;5040198;28;20395;-74
2021/07/22 07:52:36;;;;;;;11.23;6.60;;;;;;;27.22;35.92;99649.22;5039113;28;20040;-76
2021/07/22 07:55:04;;;;;;;9.18;6.80;;;;;;;27.49;35.43;99682.03;5041795;28;20034;-76
2021/07/22 07:57:29;;;;;;;9.98;7.00;;;;;;;27.25;35.54;99637.81;5050478;28;20040;-76
2021/07/22 07:59:55;;;;;;;15.98;7.57;;;;;;;27.58;35.41;99676.03;5035107;28;20083;-75
2021/07/22 08:02:20;;;;;;;9.75;6.60;;;;;;;27.60;35.16;99692.81;5029449;28;20553;-75
2021/07/22 08:04:45;;;;;;;8.25;6.55;;;;;;;27.18;35.29;99618.34;5037193;28;20028;-75
2021/07/22 08:07:11;;;;;;;12.70;8.45;;;;;;;27.49;35.15;99664.97;5050748;28;20078;-76
2021/07/22 08:09:37;;;;;;;9.20;7.70;;;;;;;27.43;35.13;99658.78;5031977;28;20025;-76
2021/07/22 08:12:03;;;;;;;11.02;9.30;;;;;;;27.68;35.06;99678.66;5032722;28;20033;-76
2021/07/22 08:14:31;;;;;;;10.48;6.93;;;;;;;27.46;34.49;99603.97;5033897;28;20040;-75
2021/07/22 08:16:56;;;;;;;12.18;7.20;;;;;;;27.43;34.32;99585.56;5043645;28;20088;-75
2021/07/22 08:19:22;;;;;;;8.95;6.35;;;;;;;28.04;34.15;99657.34;5034560;28;20116;-76
2021/07/22 08:21:47;;;;;;;7.18;6.45;;;;;;;27.68;34.31;99581.81;5034734;28;20025;-75
2021/07/22 08:24:12;;;;;;;11.60;7.07;;;;;;;27.90;34.05;99594.03;5048898;28;20104;-76
2021/07/22 08:26:38;;;;;;;6.97;6.15;;;;;;;28.43;33.81;99657.16;5046549;28;20424;-75
2021/07/22 08:29:03;;;;;;;10.15;6.35;;;;;;;28.42;34.17;99650.94;5049681;28;20032;-73
2021/07/22 08:31:29;;;;;;;10.65;5.50;;;;;;;28.02;33.46;99548.25;5039376;28;20601;-76
2021/07/22 08:33:56;;;;;;;6.10;5.05;;;;;;;28.47;33.46;99601.97;5042512;28;20416;-75
2021/07/22 08:36:21;;;;;;;5.95;4.38;;;;;;;28.33;32.67;99554.94;5030828;28;20498;-76
2021/07/22 08:38:47;;;;;;;4.82;4.32;;;;;;;28.96;32.46;99648.78;5038926;28;20033;-75
2021/07/22 08:41:13;;;;;;;6.68;5.55;;;;;;;29.02;31.99;99617.72;5037973;28;20128;-74
2021/07/22 08:43:39;;;;;;;6.35;4.65;;;;;;;29.28;31.99;99640.66;5034567;28;20096;-73
2021/07/22 08:46:06;;;;;;;6.03;4.90;;;;;;;29.49;31.68;99665.59;5033155;28;20033;-77
2021/07/22 08:48:35;;;;;;;6.45;5.60;;;;;;;29.28;31.91;99602.56;5038690;28;20037;-74
2021/07/22 08:51:02;;;;;;;7.70;4.75;;;;;;;29.69;31.72;99667.94;5034793;28;20456;-75
2021/07/22 08:53:28;;;;;;;6.45;5.32;;;;;;;29.83;30.78;99648.91;5028877;28;20028;-72
2021/07/22 08:55:58;;;;;;;4.97;4.47;;;;;;;29.59;30.80;99612.91;5038995;28;20029;-76
2021/07/22 08:58:25;;;;;;;7.53;4.40;;;;;;;29.76;30.83;99647.72;5030215;28;20038;-74
2021/07/22 09:00:52;;;;;;;8.85;4.75;;;;;;;29.59;30.82;99635.47;5046719;28;20036;-75
2021/07/22 09:03:18;;;;;;;7.00;4.70;;;;;;;29.72;30.79;99647.47;5044360;28;20111;-73
2021/07/22 09:05:43;;;;;;;5.60;4.30;;;;;;;29.90;30.68;99633.00;5037469;28;20461;-75
2021/07/22 09:08:09;;;;;;;4.95;3.85;;;;;;;29.95;30.06;99619.28;5033204;28;20029;-77
2021/07/22 09:10:35;;;;;;;5.90;4.38;;;;;;;30.18;29.69;99650.13;5039892;28;20425;-74
2021/07/22 09:13:00;;;;;;;7.90;4.68;;;;;;;30.13;29.89;99617.56;5035764;28;20048;-74
2021/07/22 09:15:32;;;;;;;8.70;4.70;;;;;;;30.25;29.90;99647.00;5050884;28;20032;-74
2021/07/22 09:17:58;;;;;;;24.00;5.18;;;;;;;30.42;29.98;99625.34;5032308;28;20133;-73
2021/07/22 09:20:31;;;;;;;7.88;5.55;;;;;;;30.66;29.71;99614.22;5042846;28;20523;-75
2021/07/22 09:23:01;;;;;;;9.13;4.80;;;;;;;30.84;29.12;99615.16;5045106;28;20512;-74
2021/07/22 09:25:48;;;;;;;14.57;9.20;;;;;;;30.92;28.76;99620.69;5033185;28;20029;-78
2021/07/22 09:28:19;;;;;;;13.25;8.05;;;;;;;30.97;28.45;99620.53;5034041;28;20029;-80
2021/07/22 09:30:55;;;;;;;8.55;5.32;;;;;;;30.84;28.59;99615.97;5036391;28;20026;-79
2021/07/22 09:33:40;;;;;;;36.85;19.98;;;;;;;31.11;28.79;99614.22;5037382;28;20464;-79
2021/07/22 09:36:07;;;;;;;10.48;7.60;;;;;;;31.25;28.31;99609.53;5043471;28;20099;-80
2021/07/22 09:38:32;;;;;;;13.25;8.43;;;;;;;31.48;28.01;99613.81;5036912;28;20022;-81
2021/07/22 09:40:58;;;;;;;16.95;10.90;;;;;;;31.72;27.74;99607.19;5052193;28;20029;-80
2021/07/22 09:43:40;;;;;;;7.07;5.72;;;;;;;31.21;27.49;99532.13;5047453;28;20024;-79
2021/07/22 09:46:07;;;;;;;17.52;9.18;;;;;;;31.64;27.40;99589.63;5041896;28;20491;-80
2021/07/22 09:48:32;;;;;;;6.53;4.65;;;;;;;31.83;27.34;99620.22;5049563;28;20059;-79
2021/07/22 09:50:58;;;;;;;7.18;5.28;;;;;;;31.67;27.23;99539.06;5052614;28;20083;-80
2021/07/22 09:53:25;;;;;;;12.70;6.32;;;;;;;31.70;26.96;99527.53;5038974;28;20410;-79
2021/07/22 09:55:56;;;;;;;11.20;7.50;;;;;;;32.18;26.84;99588.34;5052244;28;20021;-78
2021/07/22 09:58:22;;;;;;;10.90;6.10;;;;;;;31.17;26.91;99479.34;5048840;28;20526;-78
2021/07/22 10:00:55;;;;;;;6.82;4.15;;;;;;;32.13;26.58;99588.50;5052683;28;20100;-79
2021/07/22 10:03:21;;;;;;;5.85;4.22;;;;;;;32.02;26.57;99587.19;5052776;28;20029;-80
2021/07/22 10:05:51;;;;;;;6.10;4.88;;;;;;;32.27;26.61;99580.19;5052267;28;20394;-80
2021/07/22 10:08:20;;;;;;;7.10;4.57;;;;;;;31.54;26.58;99510.75;5045983;28;20026;-80
2021/07/22 10:10:53;;;;;;;7.45;5.90;;;;;;;31.68;27.30;99587.06;5034747;28;20071;-80
2021/07/22 10:13:36;;;;;;;7.30;4.65;;;;;;;30.77;27.73;99459.41;5049891;28;20036;-80
2021/07/22 10:16:10;;;;;;;6.90;5.20;;;;;;;30.57;27.99;99452.56;5035645;28;20497;-80
2021/07/22 10:18:47;;;;;;;5.55;4.95;;;;;;;31.05;28.12;99575.34;5036756;28;20021;-80
2021/07/22 10:21:14;;;;;;;7.65;4.97;;;;;;;30.12;29.01;99454.47;5043299;28;20028;-78
2021/07/22 10:23:40;;;;;;;8.57;4.60;;;;;;;30.56;28.90;99524.50;5031307;28;20026;-80
2021/07/22 10:26:06;;;;;;;5.43;3.58;;;;;;;30.84;28.00;99568.81;5049774;28;20037;-80
2021/07/22 10:28:33;;;;;;;7.32;4.57;;;;;;;30.85;28.22;99573.97;5041350;28;20513;-80
2021/07/22 10:31:02;;;;;;;9.63;7.30;;;;;;;30.84;28.17;99571.53;5032430;28;20021;-79
2021/07/22 10:33:29;;;;;;;6.45;5.85;;;;;;;30.32;28.67;99506.53;5031020;28;20615;-79
2021/07/22 10:35:56;;;;;;;17.20;15.43;;;;;;;30.63;28.83;99563.88;5032256;28;20021;-78
2021/07/22 10:38:23;;;;;;;10.93;9.63;;;;;;;30.40;28.84;99532.22;5048831;28;20023;-78
2021/07/22 10:40:59;;;;;;;6.72;6.03;;;;;;;30.79;27.88;99569.75;5041409;28;20621;-79
2021/07/22 10:43:37;;;;;;;9.73;7.30;;;;;;;30.78;27.90;99573.59;5035445;28;20491;-79
2021/07/22 10:46:07;;;;;;;4.65;3.42;;;;;;;30.81;28.13;99572.97;5049296;28;20596;-78
2021/07/22 10:48:33;;;;;;;7.65;5.07;;;;;;;30.75;28.14;99563.31;5032392;28;20049;-78
2021/07/22 10:51:07;;;;;;;9.75;6.25;;;;;;;30.76;27.43;99566.84;5032459;28;20037;-80
2021/07/22 10:53:50;;;;;;;8.45;5.22;;;;;;;30.57;27.97;99561.56;5032209;28;20571;-79
2021/07/22 10:56:18;;;;;;;7.53;4.97;;;;;;;30.25;27.90;99522.50;5039450;28;20025;-80
2021/07/22 10:58:43;;;;;;;8.07;5.30;;;;;;;30.49;28.23;99570.47;5038453;28;20029;-79
2021/07/22 11:01:09;;;;;;;7.90;4.60;;;;;;;30.20;28.46;99585.28;5037926;28;20056;-79
2021/07/22 11:03:38;;;;;;;9.15;6.50;;;;;;;30.13;28.51;99568.53;5047796;28;20029;-80
2021/07/22 11:06:06;;;;;;;4.20;3.55;;;;;;;30.03;28.13;99575.03;5051842;28;20551;-80
2021/07/22 11:08:42;;;;;;;4.60;3.20;;;;;;;29.99;28.46;99568.53;5051576;28;20102;-80
2021/07/22 11:11:09;;;;;;;6.50;4.15;;;;;;;29.77;28.26;99530.38;5034804;28;20104;-79
2021/07/22 11:13:34;;;;;;;10.85;7.13;;;;;;;29.99;28.50;99565.03;5031473;28;20026;-79
2021/07/22 11:16:04;;;;;;;9.35;3.92;;;;;;;30.12;28.74;99561.50;5032939;28;20032;-79
2021/07/22 11:21:07;;;;;;;5.45;3.15;;;;;;;30.37;28.16;99530.13;5031424;28;20025;-79
2021/07/22 11:23:33;;;;;;;4.60;3.58;;;;;;;30.57;28.08;99518.75;5036569;28;20036;-79
2021/07/22 11:25:59;;;;;;;7.88;4.78;;;;;;;30.26;27.90;99453.31;5037191;28;20029;-80